sensor_id;sensor_type;location;lat;lon;timestamp;P1;durP1;ratioP1;P2;durP2;ratioP2
3417;SDS011;1722;51.316;12.370;2022-10-16T00:01:34;1.13;;;1.03;;
3417;SDS011;1722;51.316;12.370;2022-10-16T00:04:02;0.93;;;0.90;;
3417;SDS011;1722;51.316;12.370;2022-10-16T00:06:30;3.17;;;0.90;;
3417;SDS011;1722;51.316;12.370;2022-10-16T00:08:59;1.03;;;1.03;;
3417;SDS011;1722;51.316;12.370;2022-10-16T00:11:28;3.03;;;1.13;;
3417;SDS011;1722;51.316;12.370;2022-10-16T00:13:59;1.20;;;1.10;;
3417;SDS011;1722;51.316;12.370;2022-10-16T00:16:28;4.30;;;1.10;;
3417;SDS011;1722;51.316;12.370;2022-10-16T00:18:56;1.23;;;1.13;;
3417;SDS011;1722;51.316;12.370;2022-10-16T00:21:25;2.77;;;1.27;;
3417;SDS011;1722;51.316;12.370;2022-10-16T00:23:56;2.30;;;1.17;;
3417;SDS011;1722;51.316;12.370;2022-10-16T00:26:26;1.73;;;1.00;;
3417;SDS011;1722;51.316;12.370;2022-10-16T00:28:55;2.60;;;0.90;;
3417;SDS011;1722;51.316;12.370;2022-10-16T00:31:23;1.30;;;0.90;;
3417;SDS011;1722;51.316;12.370;2022-10-16T00:33:51;1.30;;;1.00;;
3417;SDS011;1722;51.316;12.370;2022-10-16T00:36:19;0.80;;;0.80;;
3417;SDS011;1722;51.316;12.370;2022-10-16T00:38:50;2.20;;;1.20;;
3417;SDS011;1722;51.316;12.370;2022-10-16T00:41:20;1.17;;;1.00;;
3417;SDS011;1722;51.316;12.370;2022-10-16T00:43:50;2.67;;;1.20;;
3417;SDS011;1722;51.316;12.370;2022-10-16T00:46:20;1.47;;;1.10;;
3417;SDS011;1722;51.316;12.370;2022-10-16T00:48:50;1.30;;;1.00;;
3417;SDS011;1722;51.316;12.370;2022-10-16T00:51:23;1.23;;;1.00;;
3417;SDS011;1722;51.316;12.370;2022-10-16T00:53:55;3.17;;;1.30;;
3417;SDS011;1722;51.316;12.370;2022-10-16T00:56:22;1.20;;;1.10;;
3417;SDS011;1722;51.316;12.370;2022-10-16T00:58:51;1.20;;;0.97;;
3417;SDS011;1722;51.316;12.370;2022-10-16T01:01:19;2.30;;;1.17;;
3417;SDS011;1722;51.316;12.370;2022-10-16T01:03:46;1.50;;;1.10;;
3417;SDS011;1722;51.316;12.370;2022-10-16T01:06:23;1.57;;;1.17;;
3417;SDS011;1722;51.316;12.370;2022-10-16T01:08:58;1.23;;;0.97;;
3417;SDS011;1722;51.316;12.370;2022-10-16T01:11:38;1.60;;;1.37;;
3417;SDS011;1722;51.316;12.370;2022-10-16T01:14:15;3.50;;;1.20;;
3417;SDS011;1722;51.316;12.370;2022-10-16T01:16:48;1.83;;;0.90;;
3417;SDS011;1722;51.316;12.370;2022-10-16T01:19:26;1.50;;;1.00;;
3417;SDS011;1722;51.316;12.370;2022-10-16T01:22:06;2.13;;;1.20;;
3417;SDS011;1722;51.316;12.370;2022-10-16T01:24:38;0.97;;;0.97;;
3417;SDS011;1722;51.316;12.370;2022-10-16T01:27:10;1.60;;;1.10;;
3417;SDS011;1722;51.316;12.370;2022-10-16T01:29:42;3.20;;;1.20;;
3417;SDS011;1722;51.316;12.370;2022-10-16T01:32:18;1.20;;;1.10;;
3417;SDS011;1722;51.316;12.370;2022-10-16T01:34:56;0.90;;;0.90;;
3417;SDS011;1722;51.316;12.370;2022-10-16T01:37:31;1.30;;;1.20;;
3417;SDS011;1722;51.316;12.370;2022-10-16T01:40:05;1.30;;;1.20;;
3417;SDS011;1722;51.316;12.370;2022-10-16T01:42:37;4.10;;;1.40;;
3417;SDS011;1722;51.316;12.370;2022-10-16T01:45:07;1.20;;;1.10;;
3417;SDS011;1722;51.316;12.370;2022-10-16T01:47:38;2.00;;;1.50;;
3417;SDS011;1722;51.316;12.370;2022-10-16T01:50:07;1.50;;;1.40;;
3417;SDS011;1722;51.316;12.370;2022-10-16T01:52:35;3.27;;;1.40;;
3417;SDS011;1722;51.316;12.370;2022-10-16T01:55:07;1.33;;;1.10;;
3417;SDS011;1722;51.316;12.370;2022-10-16T01:57:38;7.23;;;1.37;;
3417;SDS011;1722;51.316;12.370;2022-10-16T02:00:11;1.23;;;1.10;;
3417;SDS011;1722;51.316;12.370;2022-10-16T02:02:40;3.13;;;1.70;;
3417;SDS011;1722;51.316;12.370;2022-10-16T02:05:12;1.37;;;1.27;;
3417;SDS011;1722;51.316;12.370;2022-10-16T02:07:45;1.10;;;1.00;;
3417;SDS011;1722;51.316;12.370;2022-10-16T02:10:12;3.53;;;1.30;;
3417;SDS011;1722;51.316;12.370;2022-10-16T02:12:42;0.83;;;0.83;;
3417;SDS011;1722;51.316;12.370;2022-10-16T02:15:14;1.13;;;1.03;;
3417;SDS011;1722;51.316;12.370;2022-10-16T02:17:42;3.80;;;1.53;;
3417;SDS011;1722;51.316;12.370;2022-10-16T02:20:10;2.30;;;1.30;;
3417;SDS011;1722;51.316;12.370;2022-10-16T02:22:38;1.10;;;1.10;;
3417;SDS011;1722;51.316;12.370;2022-10-16T02:25:08;1.70;;;1.00;;
3417;SDS011;1722;51.316;12.370;2022-10-16T02:27:39;2.97;;;1.00;;
3417;SDS011;1722;51.316;12.370;2022-10-16T02:30:13;5.67;;;1.07;;
3417;SDS011;1722;51.316;12.370;2022-10-16T02:32:45;1.63;;;1.17;;
3417;SDS011;1722;51.316;12.370;2022-10-16T02:35:15;0.90;;;0.90;;
3417;SDS011;1722;51.316;12.370;2022-10-16T02:37:44;1.53;;;1.00;;
3417;SDS011;1722;51.316;12.370;2022-10-16T02:40:13;1.50;;;1.10;;
3417;SDS011;1722;51.316;12.370;2022-10-16T02:42:42;1.00;;;0.90;;
3417;SDS011;1722;51.316;12.370;2022-10-16T02:45:10;3.00;;;0.80;;
3417;SDS011;1722;51.316;12.370;2022-10-16T02:47:38;1.13;;;1.03;;
3417;SDS011;1722;51.316;12.370;2022-10-16T02:50:06;1.00;;;1.00;;
3417;SDS011;1722;51.316;12.370;2022-10-16T02:52:34;1.30;;;1.00;;
3417;SDS011;1722;51.316;12.370;2022-10-16T02:55:01;1.10;;;1.00;;
3417;SDS011;1722;51.316;12.370;2022-10-16T02:57:29;2.00;;;0.87;;
3417;SDS011;1722;51.316;12.370;2022-10-16T02:59:58;3.30;;;1.00;;
3417;SDS011;1722;51.316;12.370;2022-10-16T03:02:26;1.13;;;1.00;;
3417;SDS011;1722;51.316;12.370;2022-10-16T03:04:53;0.80;;;0.80;;
3417;SDS011;1722;51.316;12.370;2022-10-16T03:07:21;2.23;;;1.00;;
3417;SDS011;1722;51.316;12.370;2022-10-16T03:09:48;1.23;;;1.13;;
3417;SDS011;1722;51.316;12.370;2022-10-16T03:12:16;1.10;;;1.00;;
3417;SDS011;1722;51.316;12.370;2022-10-16T03:14:43;0.83;;;0.83;;
3417;SDS011;1722;51.316;12.370;2022-10-16T03:17:12;1.20;;;1.10;;
3417;SDS011;1722;51.316;12.370;2022-10-16T03:19:42;1.93;;;0.83;;
3417;SDS011;1722;51.316;12.370;2022-10-16T03:22:09;1.47;;;1.00;;
3417;SDS011;1722;51.316;12.370;2022-10-16T03:24:37;3.33;;;1.00;;
3417;SDS011;1722;51.316;12.370;2022-10-16T03:27:04;1.20;;;1.10;;
3417;SDS011;1722;51.316;12.370;2022-10-16T03:29:32;1.23;;;1.13;;
3417;SDS011;1722;51.316;12.370;2022-10-16T03:32:00;1.30;;;0.90;;
3417;SDS011;1722;51.316;12.370;2022-10-16T03:34:29;2.83;;;1.07;;
3417;SDS011;1722;51.316;12.370;2022-10-16T03:36:57;1.43;;;1.10;;
3417;SDS011;1722;51.316;12.370;2022-10-16T03:39:24;3.00;;;1.10;;
3417;SDS011;1722;51.316;12.370;2022-10-16T03:41:52;1.50;;;1.10;;
3417;SDS011;1722;51.316;12.370;2022-10-16T03:44:20;1.73;;;0.93;;
3417;SDS011;1722;51.316;12.370;2022-10-16T03:46:47;2.33;;;1.00;;
3417;SDS011;1722;51.316;12.370;2022-10-16T03:49:15;1.37;;;0.90;;
3417;SDS011;1722;51.316;12.370;2022-10-16T03:51:43;2.17;;;1.27;;
3417;SDS011;1722;51.316;12.370;2022-10-16T03:54:11;1.00;;;1.00;;
3417;SDS011;1722;51.316;12.370;2022-10-16T03:56:39;1.90;;;0.90;;
3417;SDS011;1722;51.316;12.370;2022-10-16T03:59:06;1.23;;;1.13;;
3417;SDS011;1722;51.316;12.370;2022-10-16T04:01:33;3.90;;;1.83;;
3417;SDS011;1722;51.316;12.370;2022-10-16T04:04:01;2.40;;;1.63;;
3417;SDS011;1722;51.316;12.370;2022-10-16T04:06:28;2.00;;;1.43;;
3417;SDS011;1722;51.316;12.370;2022-10-16T04:08:57;1.53;;;1.13;;
3417;SDS011;1722;51.316;12.370;2022-10-16T04:11:24;0.90;;;0.90;;
3417;SDS011;1722;51.316;12.370;2022-10-16T04:13:52;0.90;;;0.90;;
3417;SDS011;1722;51.316;12.370;2022-10-16T04:16:19;1.77;;;1.00;;
3417;SDS011;1722;51.316;12.370;2022-10-16T04:18:47;1.20;;;1.10;;
3417;SDS011;1722;51.316;12.370;2022-10-16T04:21:14;1.90;;;1.60;;
3417;SDS011;1722;51.316;12.370;2022-10-16T04:23:41;4.63;;;1.73;;
3417;SDS011;1722;51.316;12.370;2022-10-16T04:26:10;3.13;;;1.80;;
3417;SDS011;1722;51.316;12.370;2022-10-16T04:28:38;2.33;;;2.13;;
3417;SDS011;1722;51.316;12.370;2022-10-16T04:31:06;3.40;;;2.27;;
3417;SDS011;1722;51.316;12.370;2022-10-16T04:33:33;2.07;;;1.60;;
3417;SDS011;1722;51.316;12.370;2022-10-16T04:36:01;2.10;;;1.20;;
3417;SDS011;1722;51.316;12.370;2022-10-16T04:38:30;5.83;;;1.27;;
3417;SDS011;1722;51.316;12.370;2022-10-16T04:40:57;1.83;;;1.00;;
3417;SDS011;1722;51.316;12.370;2022-10-16T04:43:26;2.03;;;1.50;;
3417;SDS011;1722;51.316;12.370;2022-10-16T04:45:54;3.80;;;1.70;;
3417;SDS011;1722;51.316;12.370;2022-10-16T04:48:22;1.73;;;1.30;;
3417;SDS011;1722;51.316;12.370;2022-10-16T04:50:49;2.77;;;1.20;;
3417;SDS011;1722;51.316;12.370;2022-10-16T04:53:17;2.03;;;1.00;;
3417;SDS011;1722;51.316;12.370;2022-10-16T04:55:44;5.43;;;1.40;;
3417;SDS011;1722;51.316;12.370;2022-10-16T04:58:12;2.00;;;1.20;;
3417;SDS011;1722;51.316;12.370;2022-10-16T05:00:41;1.53;;;1.43;;
3417;SDS011;1722;51.316;12.370;2022-10-16T05:03:08;1.77;;;1.03;;
3417;SDS011;1722;51.316;12.370;2022-10-16T05:05:36;1.20;;;1.10;;
3417;SDS011;1722;51.316;12.370;2022-10-16T05:08:03;5.23;;;1.10;;
3417;SDS011;1722;51.316;12.370;2022-10-16T05:10:31;1.13;;;1.00;;
3417;SDS011;1722;51.316;12.370;2022-10-16T05:12:58;1.13;;;0.97;;
3417;SDS011;1722;51.316;12.370;2022-10-16T05:15:25;1.30;;;1.20;;
3417;SDS011;1722;51.316;12.370;2022-10-16T05:17:55;1.40;;;1.30;;
3417;SDS011;1722;51.316;12.370;2022-10-16T05:20:23;1.60;;;1.20;;
3417;SDS011;1722;51.316;12.370;2022-10-16T05:22:50;2.60;;;1.20;;
3417;SDS011;1722;51.316;12.370;2022-10-16T05:25:18;1.77;;;1.30;;
3417;SDS011;1722;51.316;12.370;2022-10-16T05:27:46;5.80;;;1.40;;
3417;SDS011;1722;51.316;12.370;2022-10-16T05:30:15;3.17;;;1.63;;
3417;SDS011;1722;51.316;12.370;2022-10-16T05:32:45;1.50;;;1.13;;
3417;SDS011;1722;51.316;12.370;2022-10-16T05:35:15;1.93;;;1.40;;
3417;SDS011;1722;51.316;12.370;2022-10-16T05:37:43;1.50;;;1.17;;
3417;SDS011;1722;51.316;12.370;2022-10-16T05:40:11;1.17;;;0.90;;
3417;SDS011;1722;51.316;12.370;2022-10-16T05:42:38;2.40;;;1.47;;
3417;SDS011;1722;51.316;12.370;2022-10-16T05:45:06;2.93;;;1.23;;
3417;SDS011;1722;51.316;12.370;2022-10-16T05:47:36;7.80;;;1.20;;
3417;SDS011;1722;51.316;12.370;2022-10-16T05:50:04;1.40;;;1.30;;
3417;SDS011;1722;51.316;12.370;2022-10-16T05:52:33;1.10;;;0.97;;
3417;SDS011;1722;51.316;12.370;2022-10-16T05:55:00;1.30;;;1.20;;
3417;SDS011;1722;51.316;12.370;2022-10-16T05:57:28;2.40;;;1.30;;
3417;SDS011;1722;51.316;12.370;2022-10-16T05:59:55;1.77;;;1.50;;
3417;SDS011;1722;51.316;12.370;2022-10-16T06:02:23;1.33;;;1.23;;
3417;SDS011;1722;51.316;12.370;2022-10-16T06:04:51;1.80;;;1.40;;
3417;SDS011;1722;51.316;12.370;2022-10-16T06:07:20;6.53;;;1.30;;
3417;SDS011;1722;51.316;12.370;2022-10-16T06:09:49;2.40;;;1.30;;
3417;SDS011;1722;51.316;12.370;2022-10-16T06:12:17;1.40;;;1.20;;
3417;SDS011;1722;51.316;12.370;2022-10-16T06:14:45;1.80;;;1.30;;
3417;SDS011;1722;51.316;12.370;2022-10-16T06:17:13;1.33;;;1.20;;
3417;SDS011;1722;51.316;12.370;2022-10-16T06:19:40;1.63;;;1.53;;
3417;SDS011;1722;51.316;12.370;2022-10-16T06:22:08;2.60;;;1.50;;
3417;SDS011;1722;51.316;12.370;2022-10-16T06:24:35;1.90;;;1.40;;
3417;SDS011;1722;51.316;12.370;2022-10-16T06:27:04;1.43;;;1.30;;
3417;SDS011;1722;51.316;12.370;2022-10-16T06:29:32;6.80;;;1.33;;
3417;SDS011;1722;51.316;12.370;2022-10-16T06:31:59;13.57;;;1.63;;
3417;SDS011;1722;51.316;12.370;2022-10-16T06:34:26;1.40;;;1.30;;
3417;SDS011;1722;51.316;12.370;2022-10-16T06:36:54;1.90;;;1.40;;
3417;SDS011;1722;51.316;12.370;2022-10-16T06:39:21;8.53;;;1.77;;
3417;SDS011;1722;51.316;12.370;2022-10-16T06:41:49;1.80;;;1.70;;
3417;SDS011;1722;51.316;12.370;2022-10-16T06:44:17;5.63;;;1.50;;
3417;SDS011;1722;51.316;12.370;2022-10-16T06:46:45;1.77;;;1.63;;
3417;SDS011;1722;51.316;12.370;2022-10-16T06:49:12;2.70;;;2.03;;
3417;SDS011;1722;51.316;12.370;2022-10-16T06:51:46;1.70;;;1.60;;
3417;SDS011;1722;51.316;12.370;2022-10-16T06:54:14;3.97;;;1.60;;
3417;SDS011;1722;51.316;12.370;2022-10-16T06:56:42;1.50;;;1.40;;
3417;SDS011;1722;51.316;12.370;2022-10-16T06:59:09;3.33;;;1.63;;
3417;SDS011;1722;51.316;12.370;2022-10-16T07:01:38;2.97;;;2.20;;
3417;SDS011;1722;51.316;12.370;2022-10-16T07:04:06;2.57;;;2.33;;
3417;SDS011;1722;51.316;12.370;2022-10-16T07:06:33;6.93;;;2.40;;
3417;SDS011;1722;51.316;12.370;2022-10-16T07:09:02;3.10;;;2.47;;
3417;SDS011;1722;51.316;12.370;2022-10-16T07:11:32;7.20;;;2.73;;
3417;SDS011;1722;51.316;12.370;2022-10-16T07:13:59;2.30;;;1.90;;
3417;SDS011;1722;51.316;12.370;2022-10-16T07:16:28;6.57;;;3.67;;
3417;SDS011;1722;51.316;12.370;2022-10-16T07:18:58;8.57;;;3.53;;
3417;SDS011;1722;51.316;12.370;2022-10-16T07:21:27;3.80;;;2.10;;
3417;SDS011;1722;51.316;12.370;2022-10-16T07:23:57;3.23;;;1.80;;
3417;SDS011;1722;51.316;12.370;2022-10-16T07:26:27;3.93;;;1.60;;
3417;SDS011;1722;51.316;12.370;2022-10-16T07:28:56;2.53;;;1.80;;
3417;SDS011;1722;51.316;12.370;2022-10-16T07:31:24;3.73;;;1.70;;
3417;SDS011;1722;51.316;12.370;2022-10-16T07:33:51;8.90;;;1.80;;
3417;SDS011;1722;51.316;12.370;2022-10-16T07:36:21;2.60;;;1.50;;
3417;SDS011;1722;51.316;12.370;2022-10-16T07:38:48;3.47;;;1.67;;
3417;SDS011;1722;51.316;12.370;2022-10-16T07:41:16;1.93;;;1.30;;
3417;SDS011;1722;51.316;12.370;2022-10-16T07:43:47;4.43;;;1.50;;
3417;SDS011;1722;51.316;12.370;2022-10-16T07:46:15;2.50;;;1.00;;
3417;SDS011;1722;51.316;12.370;2022-10-16T07:48:43;1.33;;;0.93;;
3417;SDS011;1722;51.316;12.370;2022-10-16T07:51:14;3.83;;;1.27;;
3417;SDS011;1722;51.316;12.370;2022-10-16T07:53:45;0.97;;;0.97;;
3417;SDS011;1722;51.316;12.370;2022-10-16T07:56:13;2.13;;;1.57;;
3417;SDS011;1722;51.316;12.370;2022-10-16T07:58:41;1.17;;;1.00;;
3417;SDS011;1722;51.316;12.370;2022-10-16T08:01:10;1.17;;;0.97;;
3417;SDS011;1722;51.316;12.370;2022-10-16T08:03:41;3.10;;;1.07;;
3417;SDS011;1722;51.316;12.370;2022-10-16T08:06:09;3.00;;;1.50;;
3417;SDS011;1722;51.316;12.370;2022-10-16T08:08:36;4.07;;;1.23;;
3417;SDS011;1722;51.316;12.370;2022-10-16T08:11:05;1.33;;;1.00;;
3417;SDS011;1722;51.316;12.370;2022-10-16T08:13:32;1.23;;;0.97;;
3417;SDS011;1722;51.316;12.370;2022-10-16T08:16:00;1.00;;;1.00;;
3417;SDS011;1722;51.316;12.370;2022-10-16T08:18:29;1.00;;;1.00;;
3417;SDS011;1722;51.316;12.370;2022-10-16T08:20:58;1.10;;;1.00;;
3417;SDS011;1722;51.316;12.370;2022-10-16T08:23:26;1.03;;;0.93;;
3417;SDS011;1722;51.316;12.370;2022-10-16T08:25:55;1.00;;;0.90;;
3417;SDS011;1722;51.316;12.370;2022-10-16T08:28:29;0.83;;;0.83;;
3417;SDS011;1722;51.316;12.370;2022-10-16T08:31:03;0.80;;;0.80;;
3417;SDS011;1722;51.316;12.370;2022-10-16T08:33:32;1.10;;;1.00;;
3417;SDS011;1722;51.316;12.370;2022-10-16T08:36:00;1.10;;;0.90;;
3417;SDS011;1722;51.316;12.370;2022-10-16T08:38:28;1.33;;;0.90;;
3417;SDS011;1722;51.316;12.370;2022-10-16T08:40:57;1.10;;;0.80;;
3417;SDS011;1722;51.316;12.370;2022-10-16T08:43:47;2.70;;;1.03;;
3417;SDS011;1722;51.316;12.370;2022-10-16T08:46:40;1.13;;;1.03;;
3417;SDS011;1722;51.316;12.370;2022-10-16T08:49:12;4.03;;;1.20;;
3417;SDS011;1722;51.316;12.370;2022-10-16T08:51:40;1.10;;;1.00;;
3417;SDS011;1722;51.316;12.370;2022-10-16T08:54:14;2.30;;;1.10;;
3417;SDS011;1722;51.316;12.370;2022-10-16T08:56:49;1.23;;;1.00;;
3417;SDS011;1722;51.316;12.370;2022-10-16T08:59:18;2.73;;;1.10;;
3417;SDS011;1722;51.316;12.370;2022-10-16T09:01:47;2.80;;;1.17;;
3417;SDS011;1722;51.316;12.370;2022-10-16T09:07:29;1.10;;;1.00;;
3417;SDS011;1722;51.316;12.370;2022-10-16T09:10:08;2.43;;;0.80;;
3417;SDS011;1722;51.316;12.370;2022-10-16T09:12:48;1.50;;;1.10;;
3417;SDS011;1722;51.316;12.370;2022-10-16T09:15:24;1.80;;;0.97;;
3417;SDS011;1722;51.316;12.370;2022-10-16T09:18:00;0.90;;;0.90;;
3417;SDS011;1722;51.316;12.370;2022-10-16T09:20:34;1.00;;;0.87;;
3417;SDS011;1722;51.316;12.370;2022-10-16T09:23:12;0.90;;;0.80;;
3417;SDS011;1722;51.316;12.370;2022-10-16T09:25:43;1.47;;;1.00;;
3417;SDS011;1722;51.316;12.370;2022-10-16T09:28:13;1.30;;;1.00;;
3417;SDS011;1722;51.316;12.370;2022-10-16T09:30:43;1.20;;;0.90;;
3417;SDS011;1722;51.316;12.370;2022-10-16T09:33:11;1.27;;;1.00;;
3417;SDS011;1722;51.316;12.370;2022-10-16T09:35:40;1.80;;;0.90;;
3417;SDS011;1722;51.316;12.370;2022-10-16T09:38:20;1.67;;;1.00;;
3417;SDS011;1722;51.316;12.370;2022-10-16T09:40:49;1.23;;;1.13;;
3417;SDS011;1722;51.316;12.370;2022-10-16T09:43:19;1.00;;;1.00;;
3417;SDS011;1722;51.316;12.370;2022-10-16T09:45:55;0.93;;;0.93;;
3417;SDS011;1722;51.316;12.370;2022-10-16T09:48:27;2.30;;;1.13;;
3417;SDS011;1722;51.316;12.370;2022-10-16T09:50:59;1.17;;;1.00;;
3417;SDS011;1722;51.316;12.370;2022-10-16T09:53:38;7.83;;;1.07;;
3417;SDS011;1722;51.316;12.370;2022-10-16T09:56:07;2.87;;;1.00;;
3417;SDS011;1722;51.316;12.370;2022-10-16T09:58:41;1.50;;;0.97;;
3417;SDS011;1722;51.316;12.370;2022-10-16T10:01:13;2.20;;;1.07;;
3417;SDS011;1722;51.316;12.370;2022-10-16T10:03:42;2.90;;;1.00;;
3417;SDS011;1722;51.316;12.370;2022-10-16T10:06:17;3.13;;;1.43;;
3417;SDS011;1722;51.316;12.370;2022-10-16T10:08:58;0.90;;;0.90;;
3417;SDS011;1722;51.316;12.370;2022-10-16T10:11:41;1.30;;;1.20;;
3417;SDS011;1722;51.316;12.370;2022-10-16T10:14:18;1.90;;;1.10;;
3417;SDS011;1722;51.316;12.370;2022-10-16T10:16:49;2.40;;;1.10;;
3417;SDS011;1722;51.316;12.370;2022-10-16T10:19:18;1.23;;;1.00;;
3417;SDS011;1722;51.316;12.370;2022-10-16T10:21:47;4.50;;;1.50;;
3417;SDS011;1722;51.316;12.370;2022-10-16T10:24:17;2.40;;;1.03;;
3417;SDS011;1722;51.316;12.370;2022-10-16T10:26:49;1.00;;;1.00;;
3417;SDS011;1722;51.316;12.370;2022-10-16T10:29:26;3.17;;;1.00;;
3417;SDS011;1722;51.316;12.370;2022-10-16T10:32:08;1.23;;;1.13;;
3417;SDS011;1722;51.316;12.370;2022-10-16T10:34:49;1.67;;;1.43;;
3417;SDS011;1722;51.316;12.370;2022-10-16T10:37:29;1.43;;;1.10;;
3417;SDS011;1722;51.316;12.370;2022-10-16T10:40:11;1.57;;;1.20;;
3417;SDS011;1722;51.316;12.370;2022-10-16T10:42:50;4.33;;;1.20;;
3417;SDS011;1722;51.316;12.370;2022-10-16T10:45:24;1.40;;;1.30;;
3417;SDS011;1722;51.316;12.370;2022-10-16T10:48:10;1.53;;;1.20;;
3417;SDS011;1722;51.316;12.370;2022-10-16T10:50:48;1.67;;;1.30;;
3417;SDS011;1722;51.316;12.370;2022-10-16T10:53:25;2.27;;;1.20;;
3417;SDS011;1722;51.316;12.370;2022-10-16T10:56:06;1.27;;;1.17;;
3417;SDS011;1722;51.316;12.370;2022-10-16T10:58:50;2.57;;;1.20;;
3417;SDS011;1722;51.316;12.370;2022-10-16T11:01:30;1.77;;;1.20;;
3417;SDS011;1722;51.316;12.370;2022-10-16T11:04:15;1.10;;;1.00;;
3417;SDS011;1722;51.316;12.370;2022-10-16T11:07:00;1.63;;;1.53;;
3417;SDS011;1722;51.316;12.370;2022-10-16T11:09:31;1.40;;;1.30;;
3417;SDS011;1722;51.316;12.370;2022-10-16T11:12:05;8.57;;;1.30;;
3417;SDS011;1722;51.316;12.370;2022-10-16T11:14:40;1.60;;;1.00;;
3417;SDS011;1722;51.316;12.370;2022-10-16T11:17:12;1.20;;;1.20;;
3417;SDS011;1722;51.316;12.370;2022-10-16T11:19:45;3.23;;;1.13;;
3417;SDS011;1722;51.316;12.370;2022-10-16T11:22:18;2.50;;;1.60;;
3417;SDS011;1722;51.316;12.370;2022-10-16T11:24:50;1.60;;;1.40;;
3417;SDS011;1722;51.316;12.370;2022-10-16T11:27:27;2.03;;;1.60;;
3417;SDS011;1722;51.316;12.370;2022-10-16T11:30:02;1.53;;;1.43;;
3417;SDS011;1722;51.316;12.370;2022-10-16T11:32:34;1.63;;;1.53;;
3417;SDS011;1722;51.316;12.370;2022-10-16T11:35:14;1.37;;;1.27;;
3417;SDS011;1722;51.316;12.370;2022-10-16T11:37:46;1.20;;;1.10;;
3417;SDS011;1722;51.316;12.370;2022-10-16T11:40:19;1.20;;;1.20;;
3417;SDS011;1722;51.316;12.370;2022-10-16T11:42:51;1.70;;;1.27;;
3417;SDS011;1722;51.316;12.370;2022-10-16T11:45:26;2.10;;;1.13;;
3417;SDS011;1722;51.316;12.370;2022-10-16T11:48:00;9.03;;;1.20;;
3417;SDS011;1722;51.316;12.370;2022-10-16T11:50:37;2.03;;;1.23;;
3417;SDS011;1722;51.316;12.370;2022-10-16T11:53:11;6.50;;;1.30;;
3417;SDS011;1722;51.316;12.370;2022-10-16T11:55:46;2.13;;;1.30;;
3417;SDS011;1722;51.316;12.370;2022-10-16T11:58:16;1.47;;;1.37;;
3417;SDS011;1722;51.316;12.370;2022-10-16T12:00:54;1.70;;;1.50;;
3417;SDS011;1722;51.316;12.370;2022-10-16T12:03:27;1.43;;;1.30;;
3417;SDS011;1722;51.316;12.370;2022-10-16T12:06:02;1.50;;;1.40;;
3417;SDS011;1722;51.316;12.370;2022-10-16T12:08:39;1.17;;;1.07;;
3417;SDS011;1722;51.316;12.370;2022-10-16T12:11:08;2.10;;;1.70;;
3417;SDS011;1722;51.316;12.370;2022-10-16T12:13:46;2.20;;;1.83;;
3417;SDS011;1722;51.316;12.370;2022-10-16T12:16:19;1.40;;;1.30;;
3417;SDS011;1722;51.316;12.370;2022-10-16T12:18:49;1.30;;;1.20;;
3417;SDS011;1722;51.316;12.370;2022-10-16T12:21:30;1.97;;;1.87;;
3417;SDS011;1722;51.316;12.370;2022-10-16T12:23:58;1.80;;;1.70;;
3417;SDS011;1722;51.316;12.370;2022-10-16T12:26:29;1.40;;;1.30;;
3417;SDS011;1722;51.316;12.370;2022-10-16T12:29:09;1.70;;;1.40;;
3417;SDS011;1722;51.316;12.370;2022-10-16T12:31:43;1.40;;;1.30;;
3417;SDS011;1722;51.316;12.370;2022-10-16T12:34:22;1.50;;;1.27;;
3417;SDS011;1722;51.316;12.370;2022-10-16T12:36:55;4.70;;;1.10;;
3417;SDS011;1722;51.316;12.370;2022-10-16T12:39:34;2.13;;;1.60;;
3417;SDS011;1722;51.316;12.370;2022-10-16T12:42:04;2.40;;;1.10;;
3417;SDS011;1722;51.316;12.370;2022-10-16T12:44:33;1.80;;;1.20;;
3417;SDS011;1722;51.316;12.370;2022-10-16T12:47:01;1.37;;;1.27;;
3417;SDS011;1722;51.316;12.370;2022-10-16T12:49:30;1.10;;;1.00;;
3417;SDS011;1722;51.316;12.370;2022-10-16T12:52:03;1.00;;;0.90;;
3417;SDS011;1722;51.316;12.370;2022-10-16T12:54:34;1.33;;;0.90;;
3417;SDS011;1722;51.316;12.370;2022-10-16T12:57:08;1.60;;;1.50;;
3417;SDS011;1722;51.316;12.370;2022-10-16T12:59:59;1.10;;;1.10;;
3417;SDS011;1722;51.316;12.370;2022-10-16T13:02:38;2.30;;;1.20;;
3417;SDS011;1722;51.316;12.370;2022-10-16T13:05:32;1.60;;;1.07;;
3417;SDS011;1722;51.316;12.370;2022-10-16T13:08:16;1.80;;;1.30;;
3417;SDS011;1722;51.316;12.370;2022-10-16T13:10:58;1.57;;;1.07;;
3417;SDS011;1722;51.316;12.370;2022-10-16T13:13:40;1.33;;;1.23;;
3417;SDS011;1722;51.316;12.370;2022-10-16T13:16:20;1.10;;;1.00;;
3417;SDS011;1722;51.316;12.370;2022-10-16T13:18:56;4.87;;;1.00;;
3417;SDS011;1722;51.316;12.370;2022-10-16T13:21:35;1.20;;;0.90;;
3417;SDS011;1722;51.316;12.370;2022-10-16T13:24:14;1.97;;;1.07;;
3417;SDS011;1722;51.316;12.370;2022-10-16T13:26:55;2.70;;;1.20;;
3417;SDS011;1722;51.316;12.370;2022-10-16T13:29:29;1.03;;;0.93;;
3417;SDS011;1722;51.316;12.370;2022-10-16T13:31:58;1.17;;;1.07;;
3417;SDS011;1722;51.316;12.370;2022-10-16T13:34:27;1.17;;;1.17;;
3417;SDS011;1722;51.316;12.370;2022-10-16T13:36:55;1.10;;;1.03;;
3417;SDS011;1722;51.316;12.370;2022-10-16T13:39:25;1.10;;;1.00;;
3417;SDS011;1722;51.316;12.370;2022-10-16T13:42:03;2.83;;;1.10;;
3417;SDS011;1722;51.316;12.370;2022-10-16T13:44:35;1.63;;;1.10;;
3417;SDS011;1722;51.316;12.370;2022-10-16T13:47:10;1.20;;;1.10;;
3417;SDS011;1722;51.316;12.370;2022-10-16T13:49:42;2.20;;;0.90;;
3417;SDS011;1722;51.316;12.370;2022-10-16T13:52:17;1.23;;;1.13;;
3417;SDS011;1722;51.316;12.370;2022-10-16T13:54:46;1.13;;;1.03;;
3417;SDS011;1722;51.316;12.370;2022-10-16T13:57:14;2.40;;;0.90;;
3417;SDS011;1722;51.316;12.370;2022-10-16T13:59:42;2.70;;;0.93;;
3417;SDS011;1722;51.316;12.370;2022-10-16T14:02:15;5.77;;;1.00;;
3417;SDS011;1722;51.316;12.370;2022-10-16T14:04:48;1.60;;;1.00;;
3417;SDS011;1722;51.316;12.370;2022-10-16T14:07:18;1.97;;;1.20;;
3417;SDS011;1722;51.316;12.370;2022-10-16T14:09:51;1.40;;;1.30;;
3417;SDS011;1722;51.316;12.370;2022-10-16T14:12:20;1.10;;;1.10;;
3417;SDS011;1722;51.316;12.370;2022-10-16T14:14:50;1.57;;;1.00;;
3417;SDS011;1722;51.316;12.370;2022-10-16T14:17:20;1.10;;;1.00;;
3417;SDS011;1722;51.316;12.370;2022-10-16T14:19:50;7.00;;;1.13;;
3417;SDS011;1722;51.316;12.370;2022-10-16T14:22:28;1.67;;;1.20;;
3417;SDS011;1722;51.316;12.370;2022-10-16T14:25:00;1.17;;;1.07;;
3417;SDS011;1722;51.316;12.370;2022-10-16T14:27:29;1.67;;;1.40;;
3417;SDS011;1722;51.316;12.370;2022-10-16T14:30:14;1.50;;;1.30;;
3417;SDS011;1722;51.316;12.370;2022-10-16T14:32:52;3.43;;;1.37;;
3417;SDS011;1722;51.316;12.370;2022-10-16T14:35:23;2.50;;;1.97;;
3417;SDS011;1722;51.316;12.370;2022-10-16T14:37:56;3.80;;;1.40;;
3417;SDS011;1722;51.316;12.370;2022-10-16T14:40:27;1.63;;;1.40;;
3417;SDS011;1722;51.316;12.370;2022-10-16T14:42:57;3.13;;;1.53;;
3417;SDS011;1722;51.316;12.370;2022-10-16T14:45:27;1.93;;;1.40;;
3417;SDS011;1722;51.316;12.370;2022-10-16T14:47:57;1.93;;;1.50;;
3417;SDS011;1722;51.316;12.370;2022-10-16T14:50:28;1.30;;;1.20;;
3417;SDS011;1722;51.316;12.370;2022-10-16T14:52:55;2.10;;;1.37;;
3417;SDS011;1722;51.316;12.370;2022-10-16T14:55:23;1.30;;;1.20;;
3417;SDS011;1722;51.316;12.370;2022-10-16T14:57:53;1.87;;;1.30;;
3417;SDS011;1722;51.316;12.370;2022-10-16T15:00:22;14.33;;;1.87;;
3417;SDS011;1722;51.316;12.370;2022-10-16T15:02:50;1.83;;;1.20;;
3417;SDS011;1722;51.316;12.370;2022-10-16T15:05:19;1.37;;;1.27;;
3417;SDS011;1722;51.316;12.370;2022-10-16T15:07:49;4.10;;;1.70;;
3417;SDS011;1722;51.316;12.370;2022-10-16T15:10:17;3.60;;;2.97;;
3417;SDS011;1722;51.316;12.370;2022-10-16T15:12:45;2.50;;;1.40;;
3417;SDS011;1722;51.316;12.370;2022-10-16T15:15:32;1.83;;;1.57;;
3417;SDS011;1722;51.316;12.370;2022-10-16T15:18:02;3.17;;;2.17;;
3417;SDS011;1722;51.316;12.370;2022-10-16T15:20:31;2.50;;;1.40;;
3417;SDS011;1722;51.316;12.370;2022-10-16T15:23:00;1.40;;;1.30;;
3417;SDS011;1722;51.316;12.370;2022-10-16T15:25:33;1.33;;;1.23;;
3417;SDS011;1722;51.316;12.370;2022-10-16T15:28:03;2.70;;;1.27;;